Wesleyville, Canada
Current Conditions -  °F | °C
As of 12:00 AM on Monday 24 Nov 2014 (Local Time) from CYQX Reporting Station
Scattered Clouds Scattered Clouds  
Wind Chill: 14°   Ceiling: Unl
Heat Index: 27°   Visibility: 20mi
Dew Point: 18°   Wind: 16mph
Humidity: 69%   Direction: 280°W
Pressure: 29.95"   Gusts: NA
Location:  49.15°N, 53.58°W
Report Text: CYQX 240300Z 28014KT 20SM FEW027 SCT180 SCT240 M03/M08 A2995 RMK SC2AC1CI1 SLP150
Loading
Personal Weather Stations






























Interactive Weather Map New forecast layout! Learn more

10-Day Weather Forecast

Advertisements
Track Severe Weather on mobile